Time;durP1;ratioP1;P1;durP2;ratioP2;P2;SDS_P1;SDS_P2;PMS_P1;PMS_P2;Temp;Humidity;BMP_temperature;BMP_pressure;BME280_temperature;BME280_humidity;BME280_pressure;Samples;Min_cycle;Max_cycle;Signal;HPM_P1;HPM_P2
2023/02/22 00:00:41;;;;;;;33.50;10.33;;;8.80;99.90;;;;;;4997651;28;20462;-72
2023/02/22 00:03:11;;;;;;;26.17;9.47;;;8.70;99.90;;;;;;4986155;28;20454;-69
2023/02/22 00:05:39;;;;;;;28.30;9.00;;;8.60;99.90;;;;;;4981925;28;21150;-69
2023/02/22 00:08:09;;;;;;;24.63;11.03;;;8.60;99.90;;;;;;4988564;28;20465;-69
2023/02/22 00:10:40;;;;;;;21.03;8.97;;;8.50;99.90;;;;;;4983083;28;20472;-70
2023/02/22 00:13:12;;;;;;;29.67;14.30;;;8.30;99.90;;;;;;4989093;28;20891;-71
2023/02/22 00:15:40;;;;;;;25.90;9.87;;;8.10;99.90;;;;;;4995601;28;20468;-71
2023/02/22 00:18:10;;;;;;;15.57;11.07;;;8.00;99.90;;;;;;4987264;28;20477;-70
2023/02/22 00:20:38;;;;;;;23.00;9.70;;;7.90;99.90;;;;;;4993394;28;20429;-71
2023/02/22 00:23:08;;;;;;;27.60;9.43;;;7.90;99.90;;;;;;4993849;28;20446;-71
2023/02/22 00:25:36;;;;;;;28.47;9.17;;;7.80;99.90;;;;;;4998106;28;20465;-70
2023/02/22 00:28:04;;;;;;;22.70;8.97;;;7.80;99.90;;;;;;4983153;28;20540;-69
2023/02/22 00:30:33;;;;;;;18.23;8.20;;;7.80;99.90;;;;;;4949421;28;20450;-69
2023/02/22 00:33:00;;;;;;;19.87;8.70;;;7.80;99.90;;;;;;5005841;28;20528;-71
2023/02/22 00:35:29;;;;;;;18.53;8.67;;;7.90;99.90;;;;;;5001464;28;20945;-70
2023/02/22 00:37:58;;;;;;;27.67;11.60;;;7.80;99.90;;;;;;4994936;28;20464;-70
2023/02/22 00:40:30;;;;;;;25.17;9.70;;;7.90;99.90;;;;;;4992375;28;20524;-70
2023/02/22 00:42:58;;;;;;;13.40;8.17;;;7.80;99.90;;;;;;4988633;28;20460;-70
2023/02/22 00:45:27;;;;;;;23.80;9.23;;;7.70;99.90;;;;;;4993212;28;20736;-70
2023/02/22 00:47:54;;;;;;;21.60;11.93;;;7.50;99.90;;;;;;4991067;28;20543;-70
2023/02/22 00:50:22;;;;;;;20.60;7.87;;;7.40;99.90;;;;;;4984247;28;20700;-70
2023/02/22 00:52:50;;;;;;;23.30;9.00;;;7.30;99.90;;;;;;4992833;28;20468;-71
2023/02/22 00:55:19;;;;;;;23.63;9.13;;;7.30;99.90;;;;;;4984941;28;21517;-71
2023/02/22 00:57:48;;;;;;;36.83;9.73;;;7.30;99.90;;;;;;4992579;28;20477;-71
2023/02/22 01:00:18;;;;;;;16.77;8.80;;;7.30;99.90;;;;;;4996960;28;20458;-70
2023/02/22 01:02:49;;;;;;;17.30;6.03;;;7.30;99.90;;;;;;4993793;28;20914;-71
2023/02/22 01:05:17;;;;;;;14.97;7.90;;;7.30;99.90;;;;;;4993162;28;20525;-69
2023/02/22 01:07:44;;;;;;;16.30;8.10;;;7.30;99.90;;;;;;4996215;28;20472;-71
2023/02/22 01:10:12;;;;;;;14.70;7.07;;;7.30;99.90;;;;;;4994462;28;20469;-71
2023/02/22 01:12:40;;;;;;;19.97;8.47;;;7.50;99.90;;;;;;4978280;28;20469;-70
2023/02/22 01:15:11;;;;;;;19.30;7.50;;;7.60;99.90;;;;;;4997143;28;21431;-70
2023/02/22 01:17:40;;;;;;;12.83;5.80;;;7.60;99.90;;;;;;4982316;28;20575;-71
2023/02/22 01:20:11;;;;;;;15.27;8.50;;;7.60;99.90;;;;;;4992962;28;20835;-69
2023/02/22 01:22:38;;;;;;;27.37;7.53;;;7.70;99.90;;;;;;4983605;28;20511;-70
2023/02/22 01:25:06;;;;;;;23.70;8.27;;;7.60;99.90;;;;;;4993360;28;21015;-70
2023/02/22 01:27:33;;;;;;;24.77;7.90;;;7.70;99.90;;;;;;4990993;28;20449;-71
2023/02/22 01:30:01;;;;;;;13.10;7.40;;;7.90;99.90;;;;;;4998115;28;20817;-71
2023/02/22 01:32:29;;;;;;;19.90;9.97;;;7.90;99.90;;;;;;4995183;28;20463;-71
2023/02/22 01:34:56;;;;;;;16.80;6.57;;;7.90;99.90;;;;;;4993003;28;20708;-72
2023/02/22 01:37:23;;;;;;;29.17;10.43;;;7.90;99.90;;;;;;4987548;28;20482;-71
2023/02/22 01:39:50;;;;;;;22.63;9.83;;;8.00;99.90;;;;;;4989018;28;20425;-71
2023/02/22 01:42:17;;;;;;;26.83;8.73;;;8.00;99.90;;;;;;4990143;28;20461;-70
2023/02/22 01:44:44;;;;;;;28.27;10.00;;;8.00;99.90;;;;;;4993134;28;20976;-70
2023/02/22 01:47:10;;;;;;;21.20;9.23;;;8.10;99.90;;;;;;4993404;28;20456;-70
2023/02/22 01:49:44;;;;;;;28.30;10.50;;;8.10;99.90;;;;;;4996654;28;20580;-71
2023/02/22 01:52:17;;;;;;;17.33;8.10;;;8.30;99.90;;;;;;4994352;28;21397;-70
2023/02/22 01:54:48;;;;;;;29.10;12.00;;;8.30;99.90;;;;;;4991918;28;20465;-70
2023/02/22 01:57:21;;;;;;;27.50;11.10;;;8.40;99.90;;;;;;4991704;28;20496;-71
2023/02/22 01:59:52;;;;;;;27.20;10.57;;;8.40;99.90;;;;;;4987449;28;21248;-71
2023/02/22 02:02:21;;;;;;;35.90;12.10;;;8.40;99.90;;;;;;4990022;28;20464;-70
2023/02/22 02:04:53;;;;;;;25.40;9.90;;;8.50;99.90;;;;;;4991560;28;20494;-70
2023/02/22 02:07:22;;;;;;;26.40;11.97;;;8.60;99.90;;;;;;4998101;28;20978;-71
2023/02/22 02:09:56;;;;;;;19.30;8.20;;;8.50;99.90;;;;;;4987772;28;20465;-71
2023/02/22 02:12:23;;;;;;;29.00;10.57;;;8.50;99.90;;;;;;5000427;28;20424;-71
2023/02/22 02:14:50;;;;;;;23.47;11.23;;;8.50;99.90;;;;;;5001163;28;20824;-71
2023/02/22 02:17:20;;;;;;;67.90;19.93;;;8.50;99.90;;;;;;4991649;28;20897;-71
2023/02/22 02:19:58;;;;;;;33.23;10.03;;;8.40;99.90;;;;;;4991676;28;20944;-71
2023/02/22 02:22:42;;;;;;;28.40;11.07;;;8.50;99.90;;;;;;4988156;28;20543;-71
2023/02/22 02:25:51;;;;;;;26.63;11.10;;;8.40;99.90;;;;;;4989371;28;20798;-71
2023/02/22 02:29:02;;;;;;;21.93;10.93;;;8.30;99.90;;;;;;4959664;28;20561;-71
2023/02/22 02:31:58;;;;;;;87.23;17.73;;;8.20;99.90;;;;;;4996307;28;20488;-71
2023/02/22 02:34:32;;;;;;;36.97;12.17;;;8.20;99.90;;;;;;4989969;28;20727;-69
2023/02/22 02:37:07;;;;;;;55.03;14.70;;;8.20;99.90;;;;;;4994791;28;20485;-71
2023/02/22 02:39:39;;;;;;;43.07;14.00;;;8.10;99.90;;;;;;4993490;28;21039;-70
2023/02/22 02:42:10;;;;;;;49.27;17.07;;;8.30;99.90;;;;;;4977934;28;20468;-70
2023/02/22 02:44:42;;;;;;;57.40;15.23;;;8.40;99.90;;;;;;4978439;28;21108;-71
2023/02/22 02:47:13;;;;;;;51.00;13.20;;;8.50;99.90;;;;;;4985838;28;20493;-71
2023/02/22 02:49:48;;;;;;;35.03;11.97;;;8.50;99.90;;;;;;4985259;28;20525;-71
2023/02/22 02:52:18;;;;;;;49.20;15.87;;;8.50;99.90;;;;;;4986687;28;20438;-70
2023/02/22 02:54:46;;;;;;;56.87;16.83;;;8.30;99.90;;;;;;4994419;28;20469;-70
2023/02/22 02:57:13;;;;;;;91.27;16.53;;;8.30;99.90;;;;;;4994160;28;20463;-70
2023/02/22 02:59:40;;;;;;;76.97;16.70;;;8.40;99.90;;;;;;4989114;28;20858;-70
2023/02/22 03:02:23;;;;;;;44.57;14.57;;;8.50;99.90;;;;;;4983968;28;20465;-70
2023/02/22 03:05:15;;;;;;;36.73;13.27;;;8.60;99.90;;;;;;4980172;28;20436;-71
2023/02/22 03:07:55;;;;;;;61.00;15.57;;;8.60;99.90;;;;;;4992141;28;20813;-69
2023/02/22 03:10:37;;;;;;;23.43;11.30;;;8.60;99.90;;;;;;5003010;28;20494;-70
2023/02/22 03:13:11;;;;;;;27.47;10.33;;;8.40;99.90;;;;;;4993860;28;20492;-69
2023/02/22 03:15:51;;;;;;;22.57;7.87;;;8.20;99.90;;;;;;4980392;28;20462;-68
2023/02/22 03:18:22;;;;;;;30.20;11.40;;;8.10;99.90;;;;;;4990273;28;21589;-68
2023/02/22 03:20:59;;;;;;;14.50;7.70;;;8.00;99.90;;;;;;4982244;28;20729;-68
2023/02/22 03:23:32;;;;;;;18.53;6.80;;;7.80;99.90;;;;;;5002626;28;20465;-69
2023/02/22 03:26:04;;;;;;;21.60;7.57;;;7.60;99.90;;;;;;5000066;28;20504;-68
2023/02/22 03:28:33;;;;;;;12.30;6.53;;;7.50;99.90;;;;;;4989730;28;20436;-70
2023/02/22 03:31:04;;;;;;;15.10;7.30;;;7.50;99.90;;;;;;4996445;28;20462;-70
2023/02/22 03:33:36;;;;;;;35.73;10.80;;;7.50;99.90;;;;;;4998452;28;20961;-69
2023/02/22 03:36:11;;;;;;;32.20;9.53;;;7.60;99.90;;;;;;4992242;28;20560;-70
2023/02/22 03:38:40;;;;;;;34.27;11.43;;;7.70;99.90;;;;;;4990554;28;20568;-70
2023/02/22 03:41:09;;;;;;;55.43;14.03;;;7.80;99.90;;;;;;4989399;28;20469;-70
2023/02/22 03:43:41;;;;;;;60.70;14.93;;;7.90;99.90;;;;;;4990847;28;20601;-70
2023/02/22 03:46:11;;;;;;;59.10;13.03;;;7.90;99.90;;;;;;4997131;28;21003;-69
2023/02/22 03:48:43;;;;;;;40.33;11.67;;;7.90;99.90;;;;;;4985278;28;20458;-70
2023/02/22 03:51:16;;;;;;;48.87;12.23;;;7.80;99.90;;;;;;4995138;28;20822;-70
2023/02/22 03:53:46;;;;;;;36.60;12.07;;;8.00;99.90;;;;;;4981189;28;20828;-70
2023/02/22 03:56:23;;;;;;;64.60;11.97;;;8.10;99.90;;;;;;4980994;28;20482;-69
2023/02/22 03:58:51;;;;;;;31.27;8.73;;;8.10;99.90;;;;;;4984473;28;20607;-70
2023/02/22 04:01:22;;;;;;;35.20;11.37;;;8.10;99.90;;;;;;4983513;28;20455;-71
2023/02/22 04:03:49;;;;;;;84.17;14.50;;;8.00;99.90;;;;;;4976359;28;21047;-69
2023/02/22 04:06:17;;;;;;;18.67;5.47;;;7.80;99.90;;;;;;4989112;28;20853;-71
2023/02/22 04:08:44;;;;;;;28.00;12.93;;;7.70;99.90;;;;;;4985536;28;20902;-71
2023/02/22 04:11:11;;;;;;;40.33;10.90;;;7.60;99.90;;;;;;4989856;28;20454;-70
2023/02/22 04:13:43;;;;;;;47.10;13.87;;;7.60;99.90;;;;;;4997987;28;20465;-69
2023/02/22 04:16:10;;;;;;;34.47;11.40;;;7.70;99.90;;;;;;4986492;28;20847;-71
2023/02/22 04:18:37;;;;;;;15.57;7.37;;;7.70;99.90;;;;;;4994635;28;20579;-71
2023/02/22 04:21:05;;;;;;;11.37;8.20;;;7.80;99.90;;;;;;4997766;28;20440;-70
2023/02/22 04:23:35;;;;;;;31.07;9.97;;;7.70;99.90;;;;;;4986903;28;20552;-71
2023/02/22 04:26:02;;;;;;;17.30;7.07;;;7.70;99.90;;;;;;4990187;28;20509;-69
2023/02/22 04:28:31;;;;;;;25.20;10.40;;;7.70;99.90;;;;;;4988990;28;20470;-70
2023/02/22 04:30:58;;;;;;;20.50;7.80;;;7.70;99.90;;;;;;4989364;28;20462;-71
2023/02/22 04:33:25;;;;;;;21.83;9.90;;;7.80;99.90;;;;;;4992331;28;20457;-70
2023/02/22 04:35:52;;;;;;;56.50;9.23;;;7.80;99.90;;;;;;4993944;28;20591;-71
2023/02/22 04:38:19;;;;;;;52.17;9.17;;;7.90;99.90;;;;;;4990115;28;20542;-70
2023/02/22 04:40:47;;;;;;;20.57;8.07;;;8.00;99.90;;;;;;4990342;28;20454;-71
2023/02/22 04:43:14;;;;;;;54.67;12.07;;;8.00;99.90;;;;;;4993234;28;20462;-71
2023/02/22 04:45:46;;;;;;;14.77;7.00;;;8.00;99.90;;;;;;4987165;28;20501;-70
2023/02/22 04:48:13;;;;;;;31.83;7.30;;;8.10;99.90;;;;;;4985076;28;20470;-70
2023/02/22 04:50:42;;;;;;;23.27;7.90;;;7.80;99.90;;;;;;4993059;28;20433;-70
2023/02/22 04:53:09;;;;;;;79.97;14.77;;;7.80;99.90;;;;;;4991117;28;20953;-71
2023/02/22 04:55:36;;;;;;;61.50;12.90;;;7.90;99.90;;;;;;4989075;28;20959;-71
2023/02/22 04:58:04;;;;;;;56.67;10.13;;;8.00;99.90;;;;;;5008334;28;20545;-70
2023/02/22 05:00:31;;;;;;;32.70;8.23;;;8.00;99.90;;;;;;4997046;28;21160;-70
2023/02/22 05:03:06;;;;;;;32.67;7.90;;;8.00;99.90;;;;;;4985666;28;20453;-70
2023/02/22 05:05:33;;;;;;;19.00;7.77;;;8.00;99.90;;;;;;4986906;28;20479;-71
2023/02/22 05:08:01;;;;;;;44.47;9.90;;;8.10;99.90;;;;;;4987603;28;21061;-71
2023/02/22 05:10:28;;;;;;;38.03;13.03;;;8.00;99.90;;;;;;4981613;28;20675;-69
2023/02/22 05:12:58;;;;;;;68.57;10.70;;;7.90;99.90;;;;;;4991909;28;20489;-71
2023/02/22 05:15:26;;;;;;;64.23;10.93;;;8.00;99.90;;;;;;4983371;28;20443;-69
2023/02/22 05:17:53;;;;;;;51.87;10.83;;;8.00;99.90;;;;;;4987284;28;20481;-70
2023/02/22 05:20:26;;;;;;;64.97;11.53;;;7.90;99.90;;;;;;4995834;28;20444;-70
2023/02/22 05:22:54;;;;;;;64.97;10.40;;;7.80;99.90;;;;;;4997582;28;20436;-71
2023/02/22 05:25:21;;;;;;;56.80;8.90;;;7.90;99.90;;;;;;4991101;28;20971;-72
2023/02/22 05:27:51;;;;;;;54.30;10.13;;;8.00;99.90;;;;;;4996813;28;20491;-70
2023/02/22 05:30:18;;;;;;;83.30;11.80;;;8.00;99.90;;;;;;4991044;28;20469;-71
2023/02/22 05:32:47;;;;;;;43.67;9.07;;;8.00;99.90;;;;;;4991526;28;20642;-71
2023/02/22 05:35:17;;;;;;;30.53;8.97;;;8.00;99.90;;;;;;4989186;28;20552;-70
2023/02/22 05:37:44;;;;;;;80.37;11.67;;;8.00;99.90;;;;;;4988147;28;20457;-72
2023/02/22 05:40:13;;;;;;;23.83;8.60;;;8.00;99.90;;;;;;4991845;28;20952;-71
2023/02/22 05:42:48;;;;;;;60.97;12.17;;;8.10;99.90;;;;;;4989641;28;20987;-71
2023/02/22 05:45:15;;;;;;;26.87;8.57;;;8.00;99.90;;;;;;4995665;28;20475;-69
2023/02/22 05:47:42;;;;;;;40.60;12.87;;;7.90;99.90;;;;;;4997569;28;20481;-69
2023/02/22 05:50:11;;;;;;;46.37;11.27;;;7.80;99.90;;;;;;4989635;28;20433;-71
2023/02/22 05:52:40;;;;;;;63.13;10.60;;;7.70;99.90;;;;;;5000094;28;20535;-69
2023/02/22 05:55:09;;;;;;;42.20;9.87;;;7.80;99.90;;;;;;4997206;28;20465;-70
2023/02/22 05:57:36;;;;;;;36.57;10.03;;;7.90;99.90;;;;;;5004656;28;20747;-69
2023/02/22 06:00:05;;;;;;;31.07;9.27;;;7.80;99.90;;;;;;4995641;28;20473;-69
2023/02/22 06:02:32;;;;;;;48.20;10.60;;;7.90;99.90;;;;;;4998755;28;20540;-69
2023/02/22 06:05:02;;;;;;;60.17;9.00;;;7.90;99.90;;;;;;5008289;28;20466;-69
2023/02/22 06:07:30;;;;;;;44.40;9.60;;;7.90;99.90;;;;;;5001602;28;20476;-70
2023/02/22 06:09:57;;;;;;;50.50;12.47;;;8.00;99.90;;;;;;4993858;28;20489;-69
2023/02/22 06:12:24;;;;;;;42.93;9.07;;;8.00;99.90;;;;;;4992507;28;20611;-70
2023/02/22 06:14:51;;;;;;;26.77;10.50;;;7.90;99.90;;;;;;4998788;28;20545;-70
2023/02/22 06:17:18;;;;;;;28.87;8.13;;;8.00;99.90;;;;;;5000375;28;20510;-69
2023/02/22 06:19:45;;;;;;;32.77;9.73;;;8.00;99.90;;;;;;5007861;28;21080;-70
2023/02/22 06:22:18;;;;;;;22.90;6.17;;;8.00;99.90;;;;;;5000706;28;20518;-71
2023/02/22 06:24:47;;;;;;;19.63;6.17;;;7.90;99.90;;;;;;4996267;28;20445;-70
2023/02/22 06:27:14;;;;;;;15.87;6.40;;;7.70;99.90;;;;;;4996139;28;20481;-69
2023/02/22 06:29:44;;;;;;;13.93;7.17;;;7.60;99.90;;;;;;4988581;28;20503;-69
2023/02/22 06:32:11;;;;;;;20.00;8.90;;;7.50;99.90;;;;;;4994035;28;20959;-71
2023/02/22 06:34:39;;;;;;;14.30;6.57;;;7.60;99.90;;;;;;4994488;28;20553;-69
2023/02/22 06:37:07;;;;;;;15.70;7.93;;;7.50;99.90;;;;;;4994416;28;20487;-70
2023/02/22 06:39:34;;;;;;;30.53;7.50;;;7.50;99.90;;;;;;4996004;28;20481;-69
2023/02/22 06:42:04;;;;;;;15.27;6.70;;;7.50;99.90;;;;;;4993010;28;21539;-70
2023/02/22 06:44:31;;;;;;;20.33;5.63;;;7.40;99.90;;;;;;5002801;28;20528;-70
2023/02/22 06:47:00;;;;;;;20.17;5.77;;;7.30;99.90;;;;;;4995270;28;21001;-70
2023/02/22 06:49:28;;;;;;;10.50;5.60;;;7.30;99.90;;;;;;4994565;28;20434;-70
2023/02/22 06:51:57;;;;;;;19.77;7.70;;;7.40;99.90;;;;;;4998021;28;20453;-70
2023/02/22 06:54:24;;;;;;;51.90;6.87;;;7.20;99.90;;;;;;4990720;28;20966;-71
2023/02/22 06:56:51;;;;;;;11.50;5.03;;;7.30;99.90;;;;;;4993023;28;20513;-71
2023/02/22 06:59:19;;;;;;;16.83;6.80;;;7.30;99.90;;;;;;4989014;28;20609;-71
2023/02/22 07:01:46;;;;;;;21.47;6.33;;;7.30;99.90;;;;;;4997197;28;20442;-71
2023/02/22 07:04:13;;;;;;;20.30;8.40;;;7.40;99.90;;;;;;4985987;28;20450;-70
2023/02/22 07:06:44;;;;;;;12.67;5.63;;;7.30;99.90;;;;;;4994863;28;20948;-70
2023/02/22 07:09:14;;;;;;;29.70;7.23;;;7.10;99.90;;;;;;4989574;28;21131;-70
2023/02/22 07:11:42;;;;;;;7.07;4.20;;;7.20;99.90;;;;;;4991984;28;20532;-69
2023/02/22 07:14:09;;;;;;;11.80;5.27;;;7.20;99.90;;;;;;4991504;28;20473;-70
2023/02/22 07:16:38;;;;;;;8.53;5.17;;;7.10;99.90;;;;;;4990849;28;20565;-71
2023/02/22 07:19:05;;;;;;;17.30;4.93;;;7.20;99.90;;;;;;4996451;28;20824;-69
2023/02/22 07:21:31;;;;;;;13.10;7.37;;;7.30;99.90;;;;;;4998189;28;20499;-70
2023/02/22 07:23:59;;;;;;;18.57;6.30;;;7.30;99.90;;;;;;4997621;28;20555;-71
2023/02/22 07:26:27;;;;;;;15.57;5.40;;;7.40;99.90;;;;;;5002454;28;20478;-70
2023/02/22 07:28:54;;;;;;;15.53;7.37;;;7.40;99.90;;;;;;5003917;28;20441;-71
2023/02/22 07:31:21;;;;;;;9.00;4.83;;;7.50;99.90;;;;;;5000344;28;20790;-71
2023/02/22 07:33:50;;;;;;;11.03;5.00;;;7.40;99.90;;;;;;5004937;28;20732;-71
2023/02/22 07:36:17;;;;;;;13.13;5.83;;;7.20;99.90;;;;;;4992581;28;20526;-71
2023/02/22 07:38:44;;;;;;;4.57;3.70;;;7.00;99.90;;;;;;5001495;28;20444;-70
2023/02/22 07:41:11;;;;;;;7.30;4.37;;;6.90;99.90;;;;;;5002883;28;20907;-71
2023/02/22 07:43:38;;;;;;;33.37;6.57;;;6.90;99.90;;;;;;4994805;28;20466;-70
2023/02/22 07:46:06;;;;;;;9.17;5.50;;;6.90;99.90;;;;;;4997274;28;20935;-71
2023/02/22 07:48:35;;;;;;;22.27;6.70;;;7.00;99.90;;;;;;4997663;28;20830;-70
2023/02/22 07:51:04;;;;;;;11.23;5.70;;;6.90;99.90;;;;;;4991690;28;20921;-70
2023/02/22 07:53:32;;;;;;;11.53;3.90;;;6.80;99.90;;;;;;4998406;28;20465;-71
2023/02/22 07:56:01;;;;;;;7.23;4.13;;;6.90;99.90;;;;;;4989247;28;20469;-70
2023/02/22 07:58:30;;;;;;;10.57;3.40;;;6.80;99.90;;;;;;4999378;28;20467;-70
2023/02/22 08:00:58;;;;;;;7.63;4.27;;;6.70;99.90;;;;;;4972928;28;20448;-71
2023/02/22 08:03:26;;;;;;;12.80;5.80;;;6.80;99.90;;;;;;5002109;28;20541;-71
2023/02/22 08:05:55;;;;;;;10.00;4.97;;;6.90;99.90;;;;;;5008197;28;20489;-70
2023/02/22 08:08:26;;;;;;;15.33;6.30;;;7.00;99.90;;;;;;5000004;28;20835;-70
2023/02/22 08:10:55;;;;;;;8.67;4.50;;;7.30;99.90;;;;;;5002763;28;20429;-72
2023/02/22 08:13:23;;;;;;;21.83;6.80;;;7.50;99.90;;;;;;5002061;28;20865;-70
2023/02/22 08:15:54;;;;;;;7.80;5.07;;;7.30;99.90;;;;;;5002450;28;20481;-70
2023/02/22 08:18:23;;;;;;;13.63;7.33;;;7.30;99.90;;;;;;4996605;28;21016;-72
2023/02/22 08:20:52;;;;;;;10.13;4.37;;;7.50;99.90;;;;;;4992978;28;20488;-71
2023/02/22 08:23:24;;;;;;;9.60;4.77;;;7.70;99.90;;;;;;5000746;28;20465;-72
2023/02/22 08:25:55;;;;;;;12.77;4.83;;;7.50;99.90;;;;;;5003392;28;20912;-71
2023/02/22 08:28:24;;;;;;;12.60;5.43;;;7.50;99.90;;;;;;5001137;28;20453;-71
2023/02/22 08:30:52;;;;;;;22.60;6.10;;;7.40;99.90;;;;;;5007020;28;20485;-71
2023/02/22 08:33:19;;;;;;;20.03;6.53;;;7.30;99.90;;;;;;5004729;28;20917;-70
2023/02/22 08:35:50;;;;;;;12.33;5.90;;;7.50;99.90;;;;;;5000120;28;20498;-70
2023/02/22 08:38:19;;;;;;;11.40;5.63;;;7.60;99.90;;;;;;4992651;28;20457;-70
2023/02/22 08:40:48;;;;;;;14.20;5.90;;;7.60;99.90;;;;;;4993254;28;20457;-70
2023/02/22 08:43:17;;;;;;;13.80;6.00;;;7.80;99.90;;;;;;4990377;28;20940;-70
2023/02/22 08:45:45;;;;;;;9.60;5.00;;;7.80;99.90;;;;;;4990476;28;20565;-70
2023/02/22 08:48:15;;;;;;;16.13;7.43;;;8.00;99.90;;;;;;4996409;28;20497;-71
2023/02/22 08:50:43;;;;;;;11.43;6.43;;;8.00;99.90;;;;;;4992741;28;20568;-71
2023/02/22 08:53:12;;;;;;;13.10;6.77;;;8.10;99.90;;;;;;4993271;28;20444;-70
2023/02/22 08:55:40;;;;;;;22.40;7.87;;;8.10;99.90;;;;;;4998673;28;20497;-71
2023/02/22 08:58:09;;;;;;;15.33;8.07;;;8.10;99.90;;;;;;4995983;28;20458;-71
2023/02/22 09:00:38;;;;;;;20.37;8.20;;;8.20;99.90;;;;;;4999497;28;20548;-71
2023/02/22 09:03:07;;;;;;;15.27;7.80;;;8.30;99.90;;;;;;4995851;28;20501;-70
2023/02/22 09:05:37;;;;;;;13.27;7.17;;;8.10;99.90;;;;;;4995700;28;20970;-71
2023/02/22 09:08:04;;;;;;;15.30;8.80;;;8.30;99.90;;;;;;4996418;28;20488;-72
2023/02/22 09:10:33;;;;;;;12.60;7.80;;;8.70;99.90;;;;;;4998396;28;20470;-71
2023/02/22 09:13:01;;;;;;;20.13;8.13;;;9.00;99.90;;;;;;4995382;28;20471;-71
2023/02/22 09:15:29;;;;;;;18.67;7.83;;;9.10;99.90;;;;;;4994229;28;20457;-71
2023/02/22 09:18:00;;;;;;;12.23;6.67;;;9.30;99.90;;;;;;4994609;28;20484;-72
2023/02/22 09:20:29;;;;;;;24.60;7.60;;;9.30;99.90;;;;;;4991550;28;21020;-71
2023/02/22 09:22:56;;;;;;;18.93;10.20;;;9.60;99.90;;;;;;4992874;28;20462;-70
2023/02/22 09:25:24;;;;;;;16.77;9.13;;;9.90;99.90;;;;;;4996378;28;20549;-70
2023/02/22 09:27:52;;;;;;;12.50;8.20;;;10.30;99.90;;;;;;4999660;28;20477;-71
2023/02/22 09:30:23;;;;;;;14.57;7.60;;;10.40;99.90;;;;;;4993952;28;20885;-70
2023/02/22 09:32:52;;;;;;;10.97;6.97;;;10.80;99.90;;;;;;4999825;28;20457;-71
2023/02/22 09:35:25;;;;;;;10.53;7.00;;;11.20;99.90;;;;;;5002412;28;20570;-71
2023/02/22 09:37:53;;;;;;;9.13;4.60;;;11.40;99.90;;;;;;5005856;28;20552;-71
2023/02/22 09:40:28;;;;;;;14.07;6.27;;;11.60;99.90;;;;;;5001188;28;20577;-72
2023/02/22 09:43:34;;;;;;;10.07;6.80;;;12.10;99.90;;;;;;4999961;28;20460;-71
2023/02/22 09:46:18;;;;;;;17.00;5.83;;;12.40;99.90;;;;;;5004074;28;21011;-72
2023/02/22 09:48:57;;;;;;;10.97;6.20;;;13.10;99.90;;;;;;4994800;28;20973;-71
2023/02/22 09:51:30;;;;;;;9.47;5.80;;;13.60;99.90;;;;;;4998966;28;20461;-71
2023/02/22 09:54:00;;;;;;;9.07;6.43;;;14.20;99.90;;;;;;4998671;28;20456;-72
2023/02/22 09:56:29;;;;;;;12.30;6.00;;;14.70;99.90;;;;;;4999089;28;20854;-72
2023/02/22 09:59:02;;;;;;;9.80;6.27;;;14.90;99.90;;;;;;5003346;28;20549;-71
2023/02/22 10:01:33;;;;;;;10.43;6.50;;;14.80;99.90;;;;;;5001510;28;20489;-71
2023/02/22 10:04:08;;;;;;;13.27;6.27;;;15.00;99.90;;;;;;5000754;28;20497;-72
2023/02/22 10:06:39;;;;;;;16.33;6.47;;;15.10;99.90;;;;;;5000433;28;20488;-74
2023/02/22 10:09:07;;;;;;;9.50;5.90;;;15.30;99.90;;;;;;4999109;28;20978;-71
2023/02/22 10:11:58;;;;;;;9.33;5.50;;;15.90;99.90;;;;;;4998914;28;20492;-71
2023/02/22 10:14:57;;;;;;;10.57;6.23;;;16.40;99.90;;;;;;4999846;28;20469;-71
2023/02/22 10:17:32;;;;;;;9.90;6.63;;;16.70;99.90;;;;;;4971801;28;20481;-71
2023/02/22 10:20:28;;;;;;;12.20;6.20;;;17.20;99.90;;;;;;5001427;28;21408;-71
2023/02/22 10:23:04;;;;;;;11.40;6.60;;;17.60;99.90;;;;;;5000613;28;20543;-71
2023/02/22 10:25:36;;;;;;;15.20;8.00;;;18.00;99.90;;;;;;5000974;28;20552;-71
2023/02/22 10:28:11;;;;;;;13.77;7.80;;;18.60;99.90;;;;;;4994892;28;20546;-71
2023/02/22 10:30:42;;;;;;;10.67;7.17;;;18.80;99.90;;;;;;5006422;28;20967;-71
2023/02/22 10:33:15;;;;;;;8.57;6.23;;;19.30;99.90;;;;;;5016627;28;20473;-72
2023/02/22 10:35:45;;;;;;;10.57;7.10;;;19.20;99.90;;;;;;5001499;28;20469;-71
2023/02/22 10:38:22;;;;;;;9.47;6.67;;;19.10;99.90;;;;;;5002228;28;20465;-70
2023/02/22 10:40:54;;;;;;;9.53;6.90;;;18.90;99.90;;;;;;4998863;28;20473;-72
2023/02/22 10:43:24;;;;;;;8.33;6.40;;;18.50;99.90;;;;;;5001364;28;21075;-72
2023/02/22 10:45:55;;;;;;;9.30;6.33;;;18.70;99.90;;;;;;5002583;28;20539;-71
2023/02/22 10:48:24;;;;;;;18.13;6.20;;;18.30;99.90;;;;;;4999615;28;20461;-72
2023/02/22 10:50:54;;;;;;;9.40;6.27;;;18.10;99.90;;;;;;5000048;28;20453;-71
2023/02/22 10:53:22;;;;;;;12.33;7.93;;;18.00;99.90;;;;;;4995650;28;20463;-72
2023/02/22 10:56:12;;;;;;;15.77;8.60;;;18.30;99.90;;;;;;4998558;28;20503;-70
2023/02/22 10:58:54;;;;;;;17.10;9.07;;;18.10;99.90;;;;;;5000805;28;20849;-71
2023/02/22 11:01:27;;;;;;;18.30;6.80;;;17.90;99.90;;;;;;4999636;28;20927;-72
2023/02/22 11:04:00;;;;;;;11.80;8.57;;;17.90;99.90;;;;;;5013264;28;20528;-72
2023/02/22 11:06:28;;;;;;;10.60;8.03;;;17.90;99.90;;;;;;5020845;28;20466;-72
2023/02/22 11:09:10;;;;;;;11.20;7.40;;;18.00;99.90;;;;;;5006540;28;20450;-71
2023/02/22 11:11:40;;;;;;;10.67;7.53;;;18.40;99.90;;;;;;5002940;28;20466;-72
2023/02/22 11:14:09;;;;;;;9.07;6.53;;;18.20;99.90;;;;;;4994309;28;21068;-72
2023/02/22 11:16:38;;;;;;;10.73;7.40;;;18.40;99.90;;;;;;4999095;28;20518;-71
2023/02/22 11:19:19;;;;;;;12.53;6.60;;;18.70;99.90;;;;;;4998836;28;20572;-71
2023/02/22 11:21:51;;;;;;;10.50;6.90;;;19.00;99.90;;;;;;4995705;28;20474;-71
2023/02/22 11:24:23;;;;;;;11.87;6.17;;;18.70;99.90;;;;;;4991775;28;20495;-72
2023/02/22 11:26:53;;;;;;;11.83;7.30;;;18.80;99.90;;;;;;4997124;28;20521;-71
2023/02/22 11:29:25;;;;;;;11.73;6.30;;;18.90;99.90;;;;;;5006990;28;20461;-72
2023/02/22 11:31:54;;;;;;;12.83;5.87;;;19.10;99.90;;;;;;5003410;28;20963;-72
2023/02/22 11:34:32;;;;;;;12.40;6.50;;;19.50;99.90;;;;;;5011660;28;20534;-71
2023/02/22 11:37:18;;;;;;;11.10;7.67;;;19.90;99.90;;;;;;5004362;28;20496;-71
2023/02/22 11:39:46;;;;;;;13.60;7.40;;;19.80;99.90;;;;;;5000713;28;20453;-71
2023/02/22 11:42:24;;;;;;;9.73;6.40;;;19.60;99.90;;;;;;4997386;28;20493;-71
2023/02/22 11:47:52;;;;;;;12.27;7.33;;;19.40;99.90;;;;;;4990583;28;20492;-71
2023/02/22 11:50:28;;;;;;;9.70;7.30;;;19.80;99.90;;;;;;5002641;28;20880;-71
2023/02/22 11:53:14;;;;;;;16.13;9.50;;;20.50;99.90;;;;;;4992200;28;20904;-70
2023/02/22 11:55:51;;;;;;;13.53;6.97;;;21.00;99.90;;;;;;4985563;28;21674;-70
2023/02/22 11:58:35;;;;;;;12.83;7.20;;;21.50;99.90;;;;;;4998984;28;20892;-71
2023/02/22 12:01:06;;;;;;;13.43;6.70;;;22.10;99.90;;;;;;4996381;28;20516;-71
2023/02/22 12:03:57;;;;;;;9.17;5.60;;;21.60;99.90;;;;;;5002925;28;20449;-70
2023/02/22 12:06:39;;;;;;;8.50;5.57;;;21.80;99.90;;;;;;5015491;28;20481;-70
2023/02/22 12:09:13;;;;;;;14.67;5.77;;;22.20;99.90;;;;;;4999667;28;20531;-70
2023/02/22 12:11:56;;;;;;;14.20;6.50;;;22.40;99.90;;;;;;4997413;28;21527;-71
2023/02/22 12:14:30;;;;;;;7.47;5.50;;;22.40;99.90;;;;;;5000304;28;20543;-71
2023/02/22 12:17:26;;;;;;;14.73;6.90;;;22.00;99.90;;;;;;5001591;28;20547;-72
2023/02/22 12:19:58;;;;;;;9.40;6.17;;;22.60;99.90;;;;;;5003101;28;20511;-70
2023/02/22 12:22:29;;;;;;;11.37;6.23;;;23.20;99.90;;;;;;4998707;28;20512;-70
2023/02/22 12:25:00;;;;;;;6.97;4.50;;;23.50;99.90;;;;;;4997945;28;20484;-71
2023/02/22 12:27:37;;;;;;;9.90;4.63;;;23.60;99.20;;;;;;4995620;28;20484;-71
2023/02/22 12:30:11;;;;;;;6.77;3.83;;;23.30;99.00;;;;;;5000222;28;20549;-71
2023/02/22 12:32:42;;;;;;;7.57;4.77;;;23.20;97.70;;;;;;4992160;28;20467;-71
2023/02/22 12:35:18;;;;;;;8.33;4.27;;;23.10;97.40;;;;;;5002728;28;20554;-71
2023/02/22 12:37:54;;;;;;;8.07;6.17;;;23.40;96.70;;;;;;4994117;28;20513;-71
2023/02/22 12:40:27;;;;;;;11.47;5.50;;;23.90;96.20;;;;;;5004176;28;20980;-71
2023/02/22 12:43:00;;;;;;;5.80;3.57;;;24.10;94.90;;;;;;4997741;28;20481;-71
2023/02/22 12:45:34;;;;;;;7.07;3.50;;;23.50;94.00;;;;;;4999625;28;20516;-71
2023/02/22 12:48:21;;;;;;;6.57;3.70;;;23.30;94.80;;;;;;5003709;28;20564;-70
2023/02/22 12:50:54;;;;;;;12.17;4.63;;;23.30;93.60;;;;;;4998833;28;20816;-71
2023/02/22 12:53:28;;;;;;;7.30;4.03;;;23.60;94.50;;;;;;4998199;28;20873;-70
2023/02/22 12:56:00;;;;;;;9.13;3.60;;;24.10;92.20;;;;;;5001164;28;20465;-70
2023/02/22 12:58:36;;;;;;;7.70;3.63;;;24.60;92.80;;;;;;5009139;28;20474;-71
2023/02/22 13:01:06;;;;;;;9.70;4.70;;;25.40;91.40;;;;;;5005775;28;20552;-71
2023/02/22 13:03:37;;;;;;;11.80;3.27;;;25.60;87.70;;;;;;5006511;28;20897;-71
2023/02/22 13:06:21;;;;;;;4.63;2.43;;;25.30;80.80;;;;;;5005292;28;20470;-70